createdAt,value
2022-09-20T11:35:00.106Z,16.09
2022-09-20T11:36:00.076Z,16.04
2022-09-20T11:37:00.063Z,16.02
2022-09-20T11:38:00.028Z,16.08
2022-09-20T11:39:00.028Z,16.21
2022-09-20T11:40:00.035Z,16.24
2022-09-20T11:40:59.995Z,16.41
2022-09-20T11:41:59.969Z,16.48
2022-09-20T11:42:59.950Z,16.83
2022-09-20T11:43:59.930Z,16.91
2022-09-20T11:44:59.916Z,16.82
2022-09-20T11:45:59.967Z,17.06
2022-09-20T11:46:59.873Z,17.18
2022-09-20T11:47:59.865Z,17.37
2022-09-20T11:48:59.838Z,17.46
2022-09-20T11:49:59.831Z,17.59
2022-09-20T11:50:59.818Z,17.49
2022-09-20T12:41:51.189Z,16.30
2022-09-20T12:42:51.165Z,16.38
2022-09-20T12:43:51.148Z,16.46
2022-09-20T12:44:51.120Z,16.81
2022-09-20T12:45:51.126Z,16.83
2022-09-20T12:46:51.109Z,17.15
2022-09-20T12:47:51.068Z,18.27
2022-09-20T12:48:51.051Z,18.48
2022-09-20T12:49:51.035Z,18.62
2022-09-20T12:50:51.026Z,18.69
2022-09-20T12:51:51.017Z,18.52
2022-09-20T12:52:50.984Z,18.91
2022-09-20T12:53:50.972Z,18.32
2022-09-20T13:05:50.929Z,16.07
2022-09-20T13:06:50.887Z,16.23
2022-09-20T13:07:50.887Z,16.31
2022-09-20T13:08:50.861Z,16.43
2022-09-20T13:09:50.844Z,16.81
2022-09-20T13:10:50.818Z,17.12
2022-09-20T13:11:50.806Z,17.66
2022-09-20T13:12:54.416Z,17.97
2022-09-20T13:13:50.780Z,17.95
2022-09-20T13:14:50.761Z,18.08
2022-09-20T13:15:50.733Z,18.55
2022-09-20T13:16:50.725Z,18.85
2022-09-20T13:17:50.716Z,18.94
2022-09-20T13:18:50.696Z,18.91
2022-09-20T13:19:50.670Z,18.35
2022-09-20T13:20:50.652Z,18.12
2022-09-20T13:21:50.647Z,18.25
2022-09-20T13:22:50.621Z,18.33
2022-09-20T13:23:50.618Z,18.05
2022-09-20T13:24:50.588Z,18.29
2022-09-20T13:25:50.585Z,18.55
2022-09-20T13:26:50.558Z,18.67
2022-09-20T13:27:50.554Z,18.81
2022-09-20T13:28:50.545Z,18.95
2022-09-20T13:29:50.514Z,18.94
2022-09-20T13:30:50.508Z,19.62
2022-09-20T13:31:50.533Z,19.00
2022-09-20T13:32:50.473Z,18.84
2022-09-20T13:33:50.480Z,18.88
2022-09-20T13:34:50.452Z,18.73
2022-09-20T13:35:50.430Z,18.11
2022-09-20T13:36:54.125Z,17.82
2022-09-20T13:37:50.412Z,17.84
2022-09-20T13:38:50.406Z,17.43
2022-09-20T13:39:50.383Z,17.51
2022-09-20T13:40:50.357Z,17.14
2022-09-20T13:41:50.357Z,17.63
2022-09-20T13:42:50.338Z,17.59
2022-09-20T13:43:50.328Z,17.62
2022-09-20T13:44:50.309Z,17.34
2022-09-20T13:45:50.305Z,17.11
2022-09-20T13:46:50.284Z,17.36
2022-09-20T13:47:50.262Z,18.00
2022-09-20T13:48:50.266Z,18.26
2022-09-20T13:49:50.233Z,17.78
2022-09-20T13:50:53.491Z,17.23
2022-09-20T13:51:50.205Z,17.34
2022-09-20T13:52:50.188Z,17.84
2022-09-20T13:53:50.200Z,18.39
2022-09-20T13:54:50.169Z,18.20
2022-09-20T13:55:50.148Z,17.64
2022-09-20T13:56:50.131Z,17.18
2022-09-20T13:57:50.128Z,17.08
2022-09-20T14:07:44.610Z,16.57
2022-09-20T14:08:44.587Z,17.30
2022-09-20T14:09:44.579Z,18.25
2022-09-20T14:10:44.554Z,17.97
2022-09-20T14:11:44.525Z,17.38
2022-09-20T14:12:44.520Z,17.49
2022-09-20T14:13:44.508Z,17.49
2022-09-20T15:00:27.433Z,16.57
2022-09-20T15:08:00.557Z,16.63
2022-09-20T15:10:33.292Z,16.71
2022-09-20T15:11:41.213Z,16.81
2022-09-20T15:12:41.195Z,16.85
2022-09-20T15:13:41.165Z,16.85
2022-09-20T15:14:41.155Z,16.86
2022-09-20T15:15:55.165Z,17.08
2022-09-20T15:16:55.148Z,17.00
2022-09-20T15:17:55.137Z,16.93
2022-09-20T15:18:55.110Z,16.97
2022-09-20T15:19:55.181Z,17.15
